Ana Sayfa
METAR-TAF:

METAR-TAF

Havaalanları :

Bangkok, Tayland

Enlem: 13-54-45N, Boylam: 100-36-24E, yükseklik: 4 m

Güncel hava durumu gözlemi

Rapor saat 00:00 UTC de 22 dakika önce yapıldı.
Sakin rüzgar
Sıcaklık 27°C
Nem 94%
Basınç 1012 hPa
Görüş mesafesi: 5000 m
2000 ft yükseklikte az bulutlu
Pus

METAR: VTBD 210000Z 00000KT 5000 BR FEW020 27/26 Q1012 NOSIG

Saat: 07:22 (00:22 UTC)

Tahmin

Rapor saat 23:00 UTC de 1 saat ve 22 dakika önce yapıldı.
Ayın 21'si saat 00 UTC'den ayın 22'si saat 06 UTC'ye kadar geçerli Tahmin
Rüzgar kuzeydan 5 kt
Görüş mesafesi: 5000 m
2000 ft yükseklikte az bulutlu
Pus
Dönüşüyor
ayın 21'si saat 02 UTC'den ayın 21'si saat 04 UTC'ye kadar
Rüzgar doğudan 5 kt
Görüş mesafesi 10 km veya daha fazla
Dönüşüyor
ayın 21'si saat 19 UTC'den ayın 21'si saat 21 UTC'ye kadar
Rüzgar kuzeydan 5 kt

TAF: VTBD 202300Z 2100/2206 36005KT 5000 BR FEW020 BECMG 2102/2104 10005KT 9999 NSW BECMG 2119/2121 01005KT

4.000'den fazla havaalanı için hava durumu gözlemleri ve tahminleri (METAR ve TAF raporları).

Kullanılabilir istasyonlar harita üzerinde sarı ve kırmızı noktalarla gösterilir.

İstasyonun adını görmek için fareyi noktanın üzerinde gezdirin.

Sonrasında hava gözlem ve tahminlerini görmek için tıklayın.

Haritayı değiştirmek için: yaklaştırmak için siyah artı işaretli yeşil düğmeye ve uzaklaştırmak için de eksi işaretli düğmeye hızla tıklayın; bitişik haritalar için yeşil okları kullanın.


METAR-TAF: